Weather at Antrim County Airport

Public forecast

Using degrees Fahrenheit for public forecast. Weather courtesy of forecast.io.

Current aviation weather report (METAR) for Antrim County Airport

Retrieved 2021/10/23 01:35 UTC (0 seconds ago):

KACB 230135Z AUTO 00000KT 10SM SCT065 OVC075 05/04 A3000 RMK AO2 T00480039

Closest aviation forecast (TAF) to Antrim County Airport

Closest forecast is Cherry Capital Airport, 22.1 nm (40.9 km) SW. Retrieved 2021-10-23 00:22 UTC (1 hour ago):

TAF KTVC 222320Z 2300/2324 VRB03KT P6SM VCSH SCT025 BKN035 FM231500 34005KT 6SM -SHRA BKN025 OVC035